• Join FlightAware (Why Join?)
  • Login
  • US Flag 
09:49AM EDT


 

Airport Tracker/Info


-or-


 

Live Flight TrackerFlight Track Log ✈ EJA695 ✈ 19-Jul-2013 ✈ KMPV - KACK

Flight Track Log - Related Links

Times and Time Zones

All times are in EDT time to prevent confusion due to time zone crossing. See the EJA695 flight status page for this flight to view local times or setup timezone preferences in your user account.

Time Position Orientation Groundspeed Altitude Reporting Facility
EDT Latitude Longitude Course Direction KTS MPH feet Rate Location/Type
09:11AM 44.0967 -72.4833 170° South 390 449 7,500  Level Boston Center
09:12AM 44.0239 -72.4286 152° Southeast 328 377 10,400 2,700 Climbing Boston Center
09:13AM 43.9592 -72.3450 137° Southeast 293 337 12,900 1,920 Climbing Boston Center
09:14AM 43.8986 -72.2672 137° Southeast 312 359 14,300 1,440 Climbing Boston Center
09:15AM 43.8214 -72.1725 138° Southeast 340 391 15,800 1,500 Climbing Boston Center
09:16AM 43.6502 -72.2000 180° South  Level FlightAware Approximate
09:16AM 43.7419 -72.0750 138° Southeast 366 421 17,300  Level Boston Center
09:17AM 43.5494 -72.1873 170° South  Level FlightAware Approximate
09:17AM 43.6603 -71.9753 139° Southeast 382 440 18,800  Level Boston Center
09:18AM 43.5806 -71.8783 139° Southeast 388 447 20,300 1,080 Climbing Boston Center
09:19AM 43.4967 -71.7761 139° Southeast 388 447 21,000 300 Climbing Boston Center
09:20AM 43.4086 -71.6683 138° Southeast 400 460 21,000  Level Boston Center
09:21AM 43.3203 -71.5611 139° Southeast 419 482 21,000  Level Boston Center
09:22AM 43.2339 -71.4569 139° Southeast 414 476 21,000  Level Boston Center
09:23AM 43.1475 -71.3503 138° Southeast 414 476 21,000  Level Boston Center
09:24AM 43.0569 -71.2467 140° Southeast 424 488 21,000  Level Boston Center
09:25AM 42.9744 -71.1433 137° Southeast 424 488 21,000  Level Boston Center
09:26AM 42.8858 -71.0403 140° Southeast 418 481 21,000 -120 Level Boston Center
09:27AM 42.7989 -70.9347 138° Southeast 412 474 20,800 -480 Descending Boston Center
09:28AM 42.6908 -70.8131 140° Southeast 412 474 20,000 -420 Descending Boston Center
09:29AM 42.5997 -70.7083 140° Southeast 418 481 20,000 -60 Level Boston Center
09:30AM 42.5086 -70.6039 140° Southeast 423 487 19,900 -600 Descending Boston Center
09:31AM 42.4214 -70.4994 139° Southeast 423 487 18,900 -1,080 Descending Boston Center
09:32AM 42.3300 -70.3983 141° Southeast 423 487 17,800 -1,260 Descending Boston Center
09:33AM 42.2425 -70.2947 139° Southeast 423 487 16,400 -1,980 Descending Boston Center
09:34AM 42.1594 -70.2022 140° Southeast 409 471 13,900 -2,400 Descending Boston Center
09:35AM 42.0783 -70.1100 140° Southeast 391 450 11,600 -2,160 Descending Boston Center
09:36AM 41.9831 -70.0297 148° Southeast 373 429 9,600 -1,800 Descending Boston Center
09:37AM 41.9203 -70.0239 176° South 322 371 8,100 -1,440 Descending Boston Center
09:38AM 41.8261 -70.0133 175° South 294 338 6,800 -1,200 Descending Boston Center
09:39AM 41.7508 -70.0025 174° South 284 327 5,700 -1,200 Descending Boston Center
09:40AM 41.6756 -69.9914 174° South 279 321 4,500 -1,620 Descending Boston Center
09:41AM 41.6003 -69.9806 174° South 273 314 2,500 -1,320 Descending Boston Center
09:42AM 41.5356 -69.9717 174° South 260 299 1,900 -300 Descending Boston Center
09:43AM 41.4644 -69.9636 175° South 255 293 1,900  Level Boston Center
09:44AM 41.4050 -69.9050 144° Southeast 250 288 1,900  Level Boston Center
09:45AM 41.3492 -69.9347 202° Southwest 221 254 1,900 -120 Level Boston Center
09:46AM 41.3089 -69.9917 227° Southwest 206 237 1,700 -600 Descending Boston Center
09:47AM 41.2806 -70.0286 224° Southwest 179 206 800 -660 Descending Boston Center
09:48AM 41.2519 -70.0628 222° Southwest 158 182 400 5,100 Descending Boston Center
09:49AM 41.2214 -70.0972 220° Southwest 158 182 11,000 10,560 Climbing Boston Center